sensor_id;sensor_type;location;lat;lon;timestamp;temperature;humidity
24152;DHT22;12311;50.866;4.332;2022-07-12T00:01:29;20.00;99.90
24152;DHT22;12311;50.866;4.332;2022-07-12T00:03:55;20.00;99.90
24152;DHT22;12311;50.866;4.332;2022-07-12T00:06:20;19.90;99.90
24152;DHT22;12311;50.866;4.332;2022-07-12T00:08:46;20.00;99.90
24152;DHT22;12311;50.866;4.332;2022-07-12T00:11:12;19.90;99.90
24152;DHT22;12311;50.866;4.332;2022-07-12T00:13:37;19.90;99.90
24152;DHT22;12311;50.866;4.332;2022-07-12T00:16:03;19.90;99.90
24152;DHT22;12311;50.866;4.332;2022-07-12T00:18:29;19.80;99.90
24152;DHT22;12311;50.866;4.332;2022-07-12T00:20:55;19.70;99.90
24152;DHT22;12311;50.866;4.332;2022-07-12T00:23:20;19.80;99.90
24152;DHT22;12311;50.866;4.332;2022-07-12T00:25:46;19.80;99.90
24152;DHT22;12311;50.866;4.332;2022-07-12T00:28:12;19.80;99.90
24152;DHT22;12311;50.866;4.332;2022-07-12T00:30:37;19.70;99.90
24152;DHT22;12311;50.866;4.332;2022-07-12T00:33:03;19.70;99.90
24152;DHT22;12311;50.866;4.332;2022-07-12T00:35:29;19.80;99.90
24152;DHT22;12311;50.866;4.332;2022-07-12T00:37:54;19.70;99.90
24152;DHT22;12311;50.866;4.332;2022-07-12T00:40:20;19.70;99.90
24152;DHT22;12311;50.866;4.332;2022-07-12T00:42:46;19.70;99.90
24152;DHT22;12311;50.866;4.332;2022-07-12T00:45:11;19.70;99.90
24152;DHT22;12311;50.866;4.332;2022-07-12T00:47:38;19.60;99.90
24152;DHT22;12311;50.866;4.332;2022-07-12T00:50:15;19.60;99.90
24152;DHT22;12311;50.866;4.332;2022-07-12T00:52:43;19.50;99.90
24152;DHT22;12311;50.866;4.332;2022-07-12T00:55:10;19.50;99.90
24152;DHT22;12311;50.866;4.332;2022-07-12T00:57:37;19.40;99.90
24152;DHT22;12311;50.866;4.332;2022-07-12T01:00:06;19.40;99.90
24152;DHT22;12311;50.866;4.332;2022-07-12T01:02:34;19.40;99.90
24152;DHT22;12311;50.866;4.332;2022-07-12T01:05:00;19.40;99.90
24152;DHT22;12311;50.866;4.332;2022-07-12T01:07:26;19.50;99.90
24152;DHT22;12311;50.866;4.332;2022-07-12T01:09:53;19.50;99.90
24152;DHT22;12311;50.866;4.332;2022-07-12T01:12:20;19.50;99.90
24152;DHT22;12311;50.866;4.332;2022-07-12T01:14:47;19.50;99.90
24152;DHT22;12311;50.866;4.332;2022-07-12T01:17:14;19.50;99.90
24152;DHT22;12311;50.866;4.332;2022-07-12T01:19:40;19.40;99.90
24152;DHT22;12311;50.866;4.332;2022-07-12T01:22:09;19.40;99.90
24152;DHT22;12311;50.866;4.332;2022-07-12T01:24:35;19.30;99.90
24152;DHT22;12311;50.866;4.332;2022-07-12T01:27:05;19.30;99.90
24152;DHT22;12311;50.866;4.332;2022-07-12T01:29:32;19.30;99.90
24152;DHT22;12311;50.866;4.332;2022-07-12T01:32:05;19.30;99.90
24152;DHT22;12311;50.866;4.332;2022-07-12T01:37:17;19.40;99.90
24152;DHT22;12311;50.866;4.332;2022-07-12T01:39:48;19.40;99.90
24152;DHT22;12311;50.866;4.332;2022-07-12T01:42:14;19.40;99.90
24152;DHT22;12311;50.866;4.332;2022-07-12T01:44:39;19.40;99.90
24152;DHT22;12311;50.866;4.332;2022-07-12T01:47:06;19.30;99.90
24152;DHT22;12311;50.866;4.332;2022-07-12T01:49:31;19.20;99.90
24152;DHT22;12311;50.866;4.332;2022-07-12T01:51:58;19.30;99.90
24152;DHT22;12311;50.866;4.332;2022-07-12T01:54:26;19.20;99.90
24152;DHT22;12311;50.866;4.332;2022-07-12T01:56:52;19.20;99.90
24152;DHT22;12311;50.866;4.332;2022-07-12T01:59:22;19.10;99.90
24152;DHT22;12311;50.866;4.332;2022-07-12T02:01:48;19.10;99.90
24152;DHT22;12311;50.866;4.332;2022-07-12T02:04:18;19.20;99.90
24152;DHT22;12311;50.866;4.332;2022-07-12T02:06:46;19.20;99.90
24152;DHT22;12311;50.866;4.332;2022-07-12T02:09:13;19.10;99.90
24152;DHT22;12311;50.866;4.332;2022-07-12T02:11:40;19.10;99.90
24152;DHT22;12311;50.866;4.332;2022-07-12T02:14:06;19.20;99.90
24152;DHT22;12311;50.866;4.332;2022-07-12T02:16:32;19.20;99.90
24152;DHT22;12311;50.866;4.332;2022-07-12T02:18:58;19.00;99.90
24152;DHT22;12311;50.866;4.332;2022-07-12T02:21:23;19.00;99.90
24152;DHT22;12311;50.866;4.332;2022-07-12T02:23:49;19.00;99.90
24152;DHT22;12311;50.866;4.332;2022-07-12T02:26:15;18.90;99.90
24152;DHT22;12311;50.866;4.332;2022-07-12T02:28:41;19.00;99.90
24152;DHT22;12311;50.866;4.332;2022-07-12T02:31:07;19.00;99.90
24152;DHT22;12311;50.866;4.332;2022-07-12T02:33:33;19.00;99.90
24152;DHT22;12311;50.866;4.332;2022-07-12T02:35:59;18.90;99.90
24152;DHT22;12311;50.866;4.332;2022-07-12T02:38:25;18.90;99.90
24152;DHT22;12311;50.866;4.332;2022-07-12T02:40:50;18.80;99.90
24152;DHT22;12311;50.866;4.332;2022-07-12T02:43:23;18.70;99.90
24152;DHT22;12311;50.866;4.332;2022-07-12T02:45:53;18.70;99.90
24152;DHT22;12311;50.866;4.332;2022-07-12T02:48:19;18.60;99.90
24152;DHT22;12311;50.866;4.332;2022-07-12T02:50:45;18.60;99.90
24152;DHT22;12311;50.866;4.332;2022-07-12T02:53:11;18.60;99.90
24152;DHT22;12311;50.866;4.332;2022-07-12T02:55:38;18.60;99.90
24152;DHT22;12311;50.866;4.332;2022-07-12T02:58:04;18.50;99.90
24152;DHT22;12311;50.866;4.332;2022-07-12T03:00:34;18.40;99.90
24152;DHT22;12311;50.866;4.332;2022-07-12T03:03:00;18.30;99.90
24152;DHT22;12311;50.866;4.332;2022-07-12T03:05:26;18.30;99.90
24152;DHT22;12311;50.866;4.332;2022-07-12T03:07:52;18.30;99.90
24152;DHT22;12311;50.866;4.332;2022-07-12T03:10:18;18.20;99.90
24152;DHT22;12311;50.866;4.332;2022-07-12T03:12:43;18.20;99.90
24152;DHT22;12311;50.866;4.332;2022-07-12T03:15:09;18.10;99.90
24152;DHT22;12311;50.866;4.332;2022-07-12T03:17:35;18.00;99.90
24152;DHT22;12311;50.866;4.332;2022-07-12T03:20:01;18.00;99.90
24152;DHT22;12311;50.866;4.332;2022-07-12T03:22:29;18.00;99.90
24152;DHT22;12311;50.866;4.332;2022-07-12T03:24:54;18.00;99.90
24152;DHT22;12311;50.866;4.332;2022-07-12T03:27:20;17.90;99.90
24152;DHT22;12311;50.866;4.332;2022-07-12T03:29:46;17.90;99.90
24152;DHT22;12311;50.866;4.332;2022-07-12T03:32:11;17.80;99.90
24152;DHT22;12311;50.866;4.332;2022-07-12T03:34:37;17.80;99.90
24152;DHT22;12311;50.866;4.332;2022-07-12T03:37:04;17.80;99.90
24152;DHT22;12311;50.866;4.332;2022-07-12T03:39:30;17.80;99.90
24152;DHT22;12311;50.866;4.332;2022-07-12T03:41:55;17.70;99.90
24152;DHT22;12311;50.866;4.332;2022-07-12T03:44:21;17.70;99.90
24152;DHT22;12311;50.866;4.332;2022-07-12T03:46:47;17.70;99.90
24152;DHT22;12311;50.866;4.332;2022-07-12T03:49:13;17.70;99.90
24152;DHT22;12311;50.866;4.332;2022-07-12T03:51:39;17.90;99.90
24152;DHT22;12311;50.866;4.332;2022-07-12T03:54:05;18.00;99.90
24152;DHT22;12311;50.866;4.332;2022-07-12T03:56:36;17.90;99.90
24152;DHT22;12311;50.866;4.332;2022-07-12T03:59:20;17.90;99.90
24152;DHT22;12311;50.866;4.332;2022-07-12T04:01:46;17.90;99.90
24152;DHT22;12311;50.866;4.332;2022-07-12T04:04:12;17.80;99.90
24152;DHT22;12311;50.866;4.332;2022-07-12T04:06:38;17.80;99.90
24152;DHT22;12311;50.866;4.332;2022-07-12T04:09:06;17.80;99.90
24152;DHT22;12311;50.866;4.332;2022-07-12T04:11:33;17.90;99.90
24152;DHT22;12311;50.866;4.332;2022-07-12T04:13:59;17.90;99.90
24152;DHT22;12311;50.866;4.332;2022-07-12T04:16:25;17.90;99.90
24152;DHT22;12311;50.866;4.332;2022-07-12T04:18:51;18.00;99.90
24152;DHT22;12311;50.866;4.332;2022-07-12T04:21:17;18.00;99.90
24152;DHT22;12311;50.866;4.332;2022-07-12T04:23:43;18.00;99.90
24152;DHT22;12311;50.866;4.332;2022-07-12T04:26:09;18.10;99.90
24152;DHT22;12311;50.866;4.332;2022-07-12T04:28:35;18.10;99.90
24152;DHT22;12311;50.866;4.332;2022-07-12T04:31:01;18.20;99.90
24152;DHT22;12311;50.866;4.332;2022-07-12T04:33:26;18.20;99.90
24152;DHT22;12311;50.866;4.332;2022-07-12T04:35:52;18.30;99.90
24152;DHT22;12311;50.866;4.332;2022-07-12T04:38:18;18.40;99.90
24152;DHT22;12311;50.866;4.332;2022-07-12T04:40:43;18.40;99.90
24152;DHT22;12311;50.866;4.332;2022-07-12T04:43:09;18.50;99.90
24152;DHT22;12311;50.866;4.332;2022-07-12T04:45:34;18.60;99.90
24152;DHT22;12311;50.866;4.332;2022-07-12T04:48:00;18.80;99.90
24152;DHT22;12311;50.866;4.332;2022-07-12T04:50:26;18.80;99.90
24152;DHT22;12311;50.866;4.332;2022-07-12T04:52:52;18.90;99.90
24152;DHT22;12311;50.866;4.332;2022-07-12T04:55:17;19.10;99.90
24152;DHT22;12311;50.866;4.332;2022-07-12T04:57:43;19.20;99.90
24152;DHT22;12311;50.866;4.332;2022-07-12T05:00:09;19.20;99.90
24152;DHT22;12311;50.866;4.332;2022-07-12T05:02:35;19.20;99.90
24152;DHT22;12311;50.866;4.332;2022-07-12T05:05:01;19.20;99.90
24152;DHT22;12311;50.866;4.332;2022-07-12T05:07:26;19.30;99.90
24152;DHT22;12311;50.866;4.332;2022-07-12T05:09:52;19.40;99.90
24152;DHT22;12311;50.866;4.332;2022-07-12T05:12:18;19.40;99.90
24152;DHT22;12311;50.866;4.332;2022-07-12T05:14:44;19.50;99.90
24152;DHT22;12311;50.866;4.332;2022-07-12T05:17:10;19.60;99.90
24152;DHT22;12311;50.866;4.332;2022-07-12T05:19:37;19.80;99.90
24152;DHT22;12311;50.866;4.332;2022-07-12T05:22:03;19.90;99.90
24152;DHT22;12311;50.866;4.332;2022-07-12T05:24:29;20.00;99.90
24152;DHT22;12311;50.866;4.332;2022-07-12T05:26:55;19.90;99.90
24152;DHT22;12311;50.866;4.332;2022-07-12T05:29:21;19.80;99.90
24152;DHT22;12311;50.866;4.332;2022-07-12T05:31:46;19.90;99.90
24152;DHT22;12311;50.866;4.332;2022-07-12T05:34:12;20.10;99.90
24152;DHT22;12311;50.866;4.332;2022-07-12T05:36:38;20.30;99.90
24152;DHT22;12311;50.866;4.332;2022-07-12T05:39:04;20.40;99.90
24152;DHT22;12311;50.866;4.332;2022-07-12T05:41:29;20.60;99.90
24152;DHT22;12311;50.866;4.332;2022-07-12T05:43:55;20.70;99.90
24152;DHT22;12311;50.866;4.332;2022-07-12T05:46:21;20.80;99.90
24152;DHT22;12311;50.866;4.332;2022-07-12T05:48:47;20.90;99.90
24152;DHT22;12311;50.866;4.332;2022-07-12T05:51:13;21.00;99.90
24152;DHT22;12311;50.866;4.332;2022-07-12T05:53:58;21.20;99.90
24152;DHT22;12311;50.866;4.332;2022-07-12T05:56:24;21.20;99.90
24152;DHT22;12311;50.866;4.332;2022-07-12T05:58:49;21.20;99.90
24152;DHT22;12311;50.866;4.332;2022-07-12T06:01:16;21.00;99.90
24152;DHT22;12311;50.866;4.332;2022-07-12T06:03:42;21.00;99.90
24152;DHT22;12311;50.866;4.332;2022-07-12T06:06:08;21.20;99.90
24152;DHT22;12311;50.866;4.332;2022-07-12T06:08:34;21.30;99.90
24152;DHT22;12311;50.866;4.332;2022-07-12T06:10:59;21.30;99.90
24152;DHT22;12311;50.866;4.332;2022-07-12T06:13:25;21.40;99.90
24152;DHT22;12311;50.866;4.332;2022-07-12T06:15:51;21.50;99.90
24152;DHT22;12311;50.866;4.332;2022-07-12T06:18:17;21.50;99.90
24152;DHT22;12311;50.866;4.332;2022-07-12T06:20:42;21.50;99.90
24152;DHT22;12311;50.866;4.332;2022-07-12T06:23:08;21.40;99.90
24152;DHT22;12311;50.866;4.332;2022-07-12T06:25:33;21.40;99.90
24152;DHT22;12311;50.866;4.332;2022-07-12T06:28:00;21.60;99.90
24152;DHT22;12311;50.866;4.332;2022-07-12T06:30:26;21.70;99.90
24152;DHT22;12311;50.866;4.332;2022-07-12T06:32:52;21.80;99.90
24152;DHT22;12311;50.866;4.332;2022-07-12T06:35:18;21.80;99.90
24152;DHT22;12311;50.866;4.332;2022-07-12T06:37:44;21.90;99.90
24152;DHT22;12311;50.866;4.332;2022-07-12T06:40:10;22.00;99.90
24152;DHT22;12311;50.866;4.332;2022-07-12T06:42:36;21.90;99.90
24152;DHT22;12311;50.866;4.332;2022-07-12T06:45:02;22.00;99.90
24152;DHT22;12311;50.866;4.332;2022-07-12T06:47:28;21.90;99.90
24152;DHT22;12311;50.866;4.332;2022-07-12T06:49:54;21.90;99.90
24152;DHT22;12311;50.866;4.332;2022-07-12T06:52:20;21.90;99.90
24152;DHT22;12311;50.866;4.332;2022-07-12T06:54:47;21.90;99.90
24152;DHT22;12311;50.866;4.332;2022-07-12T06:57:12;21.90;99.90
24152;DHT22;12311;50.866;4.332;2022-07-12T06:59:38;22.00;99.90
24152;DHT22;12311;50.866;4.332;2022-07-12T07:02:04;22.10;99.90
24152;DHT22;12311;50.866;4.332;2022-07-12T07:04:30;22.10;99.90
24152;DHT22;12311;50.866;4.332;2022-07-12T07:06:55;22.20;99.90
24152;DHT22;12311;50.866;4.332;2022-07-12T07:09:21;22.30;99.90
24152;DHT22;12311;50.866;4.332;2022-07-12T07:11:47;22.40;99.90
24152;DHT22;12311;50.866;4.332;2022-07-12T07:14:12;22.50;99.90
24152;DHT22;12311;50.866;4.332;2022-07-12T07:16:38;22.40;99.90
24152;DHT22;12311;50.866;4.332;2022-07-12T07:19:04;22.30;99.90
24152;DHT22;12311;50.866;4.332;2022-07-12T07:21:31;22.20;99.90
24152;DHT22;12311;50.866;4.332;2022-07-12T07:23:56;22.00;99.90
24152;DHT22;12311;50.866;4.332;2022-07-12T07:26:22;22.10;99.90
24152;DHT22;12311;50.866;4.332;2022-07-12T07:28:48;22.30;99.90
24152;DHT22;12311;50.866;4.332;2022-07-12T07:31:36;22.50;99.90
24152;DHT22;12311;50.866;4.332;2022-07-12T07:34:03;22.70;99.90
24152;DHT22;12311;50.866;4.332;2022-07-12T07:36:29;22.60;99.90
24152;DHT22;12311;50.866;4.332;2022-07-12T07:38:55;22.70;99.90
24152;DHT22;12311;50.866;4.332;2022-07-12T07:41:20;22.70;99.90
24152;DHT22;12311;50.866;4.332;2022-07-12T07:43:46;22.70;99.90
24152;DHT22;12311;50.866;4.332;2022-07-12T07:46:12;22.90;99.90
24152;DHT22;12311;50.866;4.332;2022-07-12T07:48:38;23.10;99.90
24152;DHT22;12311;50.866;4.332;2022-07-12T07:51:03;23.40;99.90
24152;DHT22;12311;50.866;4.332;2022-07-12T07:53:29;23.50;99.90
24152;DHT22;12311;50.866;4.332;2022-07-12T07:55:55;23.70;99.90
24152;DHT22;12311;50.866;4.332;2022-07-12T07:58:20;23.60;99.90
24152;DHT22;12311;50.866;4.332;2022-07-12T08:00:49;23.70;99.90
24152;DHT22;12311;50.866;4.332;2022-07-12T08:03:14;23.70;99.90
24152;DHT22;12311;50.866;4.332;2022-07-12T08:05:40;23.50;99.90
24152;DHT22;12311;50.866;4.332;2022-07-12T08:08:06;23.50;99.90
24152;DHT22;12311;50.866;4.332;2022-07-12T08:10:31;23.50;99.90
24152;DHT22;12311;50.866;4.332;2022-07-12T08:12:57;23.60;99.90
24152;DHT22;12311;50.866;4.332;2022-07-12T08:15:22;23.60;99.90
24152;DHT22;12311;50.866;4.332;2022-07-12T08:17:48;23.60;99.90
24152;DHT22;12311;50.866;4.332;2022-07-12T08:20:14;23.60;99.90
24152;DHT22;12311;50.866;4.332;2022-07-12T08:22:43;23.80;99.90
24152;DHT22;12311;50.866;4.332;2022-07-12T08:25:10;23.80;99.90
24152;DHT22;12311;50.866;4.332;2022-07-12T08:27:36;24.10;99.90
24152;DHT22;12311;50.866;4.332;2022-07-12T08:30:02;24.20;99.90
24152;DHT22;12311;50.866;4.332;2022-07-12T08:32:28;24.00;99.90
24152;DHT22;12311;50.866;4.332;2022-07-12T08:34:54;24.00;99.90
24152;DHT22;12311;50.866;4.332;2022-07-12T08:37:19;24.10;99.90
24152;DHT22;12311;50.866;4.332;2022-07-12T08:39:45;24.50;99.90
24152;DHT22;12311;50.866;4.332;2022-07-12T08:42:14;24.80;99.90
24152;DHT22;12311;50.866;4.332;2022-07-12T08:44:40;25.00;99.90
24152;DHT22;12311;50.866;4.332;2022-07-12T08:47:08;25.20;99.90
24152;DHT22;12311;50.866;4.332;2022-07-12T08:49:34;24.70;99.90
24152;DHT22;12311;50.866;4.332;2022-07-12T08:52:01;24.80;99.90
24152;DHT22;12311;50.866;4.332;2022-07-12T08:54:42;24.80;99.90
24152;DHT22;12311;50.866;4.332;2022-07-12T08:57:08;24.90;99.90
24152;DHT22;12311;50.866;4.332;2022-07-12T08:59:33;25.20;99.90
24152;DHT22;12311;50.866;4.332;2022-07-12T09:01:59;25.50;99.90
24152;DHT22;12311;50.866;4.332;2022-07-12T09:04:26;25.70;99.90
24152;DHT22;12311;50.866;4.332;2022-07-12T09:06:55;26.00;99.90
24152;DHT22;12311;50.866;4.332;2022-07-12T09:09:27;26.30;99.90
24152;DHT22;12311;50.866;4.332;2022-07-12T09:11:54;26.20;99.90
24152;DHT22;12311;50.866;4.332;2022-07-12T09:14:20;26.60;99.90
24152;DHT22;12311;50.866;4.332;2022-07-12T09:17:02;26.70;99.90
24152;DHT22;12311;50.866;4.332;2022-07-12T09:19:28;26.40;99.90
24152;DHT22;12311;50.866;4.332;2022-07-12T09:21:55;26.40;99.90
24152;DHT22;12311;50.866;4.332;2022-07-12T09:24:24;26.60;99.90
24152;DHT22;12311;50.866;4.332;2022-07-12T09:27:03;26.80;99.90
24152;DHT22;12311;50.866;4.332;2022-07-12T09:29:30;26.70;99.90
24152;DHT22;12311;50.866;4.332;2022-07-12T09:31:56;26.60;99.90
24152;DHT22;12311;50.866;4.332;2022-07-12T09:34:40;26.50;99.90
24152;DHT22;12311;50.866;4.332;2022-07-12T09:37:25;27.00;99.90
24152;DHT22;12311;50.866;4.332;2022-07-12T09:39:52;27.30;99.90
24152;DHT22;12311;50.866;4.332;2022-07-12T09:42:21;27.20;99.90
24152;DHT22;12311;50.866;4.332;2022-07-12T09:44:52;27.30;99.90
24152;DHT22;12311;50.866;4.332;2022-07-12T09:47:18;27.50;99.90
24152;DHT22;12311;50.866;4.332;2022-07-12T09:49:45;27.60;99.90
24152;DHT22;12311;50.866;4.332;2022-07-12T09:52:17;27.80;99.90
24152;DHT22;12311;50.866;4.332;2022-07-12T09:54:44;27.60;99.90
24152;DHT22;12311;50.866;4.332;2022-07-12T09:57:20;27.70;99.90
24152;DHT22;12311;50.866;4.332;2022-07-12T09:59:47;27.90;99.90
24152;DHT22;12311;50.866;4.332;2022-07-12T10:02:15;28.20;99.90
24152;DHT22;12311;50.866;4.332;2022-07-12T10:04:42;28.50;99.90
24152;DHT22;12311;50.866;4.332;2022-07-12T10:07:10;28.60;99.90
24152;DHT22;12311;50.866;4.332;2022-07-12T10:09:39;28.90;99.90
24152;DHT22;12311;50.866;4.332;2022-07-12T10:12:05;29.40;99.90
24152;DHT22;12311;50.866;4.332;2022-07-12T10:14:31;29.70;99.90
24152;DHT22;12311;50.866;4.332;2022-07-12T10:16:58;30.00;99.90
24152;DHT22;12311;50.866;4.332;2022-07-12T10:19:25;30.10;99.90
24152;DHT22;12311;50.866;4.332;2022-07-12T10:22:00;30.20;99.90
24152;DHT22;12311;50.866;4.332;2022-07-12T10:26:59;29.80;99.90
24152;DHT22;12311;50.866;4.332;2022-07-12T10:29:26;30.10;99.90
24152;DHT22;12311;50.866;4.332;2022-07-12T10:31:52;30.10;99.90
24152;DHT22;12311;50.866;4.332;2022-07-12T10:34:23;30.30;99.90
24152;DHT22;12311;50.866;4.332;2022-07-12T10:39:24;30.60;97.90
24152;DHT22;12311;50.866;4.332;2022-07-12T10:44:43;30.90;96.60
24152;DHT22;12311;50.866;4.332;2022-07-12T10:47:10;30.90;96.50
24152;DHT22;12311;50.866;4.332;2022-07-12T10:49:47;31.20;97.00
24152;DHT22;12311;50.866;4.332;2022-07-12T10:52:14;31.60;95.80
24152;DHT22;12311;50.866;4.332;2022-07-12T10:54:42;31.70;95.40
24152;DHT22;12311;50.866;4.332;2022-07-12T10:57:08;31.80;95.00
24152;DHT22;12311;50.866;4.332;2022-07-12T10:59:36;32.00;93.70
24152;DHT22;12311;50.866;4.332;2022-07-12T11:02:02;32.30;93.60
24152;DHT22;12311;50.866;4.332;2022-07-12T11:04:29;32.70;92.00
24152;DHT22;12311;50.866;4.332;2022-07-12T11:06:55;32.80;91.60
24152;DHT22;12311;50.866;4.332;2022-07-12T11:09:24;32.80;91.60
24152;DHT22;12311;50.866;4.332;2022-07-12T11:11:51;33.00;87.70
24152;DHT22;12311;50.866;4.332;2022-07-12T11:14:21;33.40;87.70
24152;DHT22;12311;50.866;4.332;2022-07-12T11:16:48;33.80;84.90
24152;DHT22;12311;50.866;4.332;2022-07-12T11:19:15;34.00;82.30
24152;DHT22;12311;50.866;4.332;2022-07-12T11:21:45;34.20;78.70
24152;DHT22;12311;50.866;4.332;2022-07-12T11:24:19;34.40;76.20
24152;DHT22;12311;50.866;4.332;2022-07-12T11:26:45;34.90;74.10
24152;DHT22;12311;50.866;4.332;2022-07-12T11:29:12;35.20;72.50
24152;DHT22;12311;50.866;4.332;2022-07-12T11:31:40;36.00;68.70
24152;DHT22;12311;50.866;4.332;2022-07-12T11:34:27;36.30;65.00
24152;DHT22;12311;50.866;4.332;2022-07-12T11:37:01;36.70;64.30
24152;DHT22;12311;50.866;4.332;2022-07-12T11:39:44;37.00;61.70
24152;DHT22;12311;50.866;4.332;2022-07-12T11:42:11;37.40;60.70
24152;DHT22;12311;50.866;4.332;2022-07-12T11:44:51;37.30;59.00
24152;DHT22;12311;50.866;4.332;2022-07-12T11:47:22;37.40;58.50
24152;DHT22;12311;50.866;4.332;2022-07-12T11:49:52;36.90;58.60
24152;DHT22;12311;50.866;4.332;2022-07-12T11:52:20;37.30;58.80
24152;DHT22;12311;50.866;4.332;2022-07-12T11:54:47;36.70;57.60
24152;DHT22;12311;50.866;4.332;2022-07-12T11:57:13;37.10;57.90
24152;DHT22;12311;50.866;4.332;2022-07-12T11:59:40;37.80;56.00
24152;DHT22;12311;50.866;4.332;2022-07-12T12:02:08;37.80;56.80
24152;DHT22;12311;50.866;4.332;2022-07-12T12:04:49;38.40;55.10
24152;DHT22;12311;50.866;4.332;2022-07-12T12:07:16;39.20;53.50
24152;DHT22;12311;50.866;4.332;2022-07-12T12:12:27;41.20;51.20
24152;DHT22;12311;50.866;4.332;2022-07-12T12:14:53;40.70;50.20
24152;DHT22;12311;50.866;4.332;2022-07-12T12:17:19;39.70;50.10
24152;DHT22;12311;50.866;4.332;2022-07-12T12:19:44;39.00;50.90
24152;DHT22;12311;50.866;4.332;2022-07-12T12:22:36;39.40;51.80
24152;DHT22;12311;50.866;4.332;2022-07-12T12:25:04;39.40;49.40
24152;DHT22;12311;50.866;4.332;2022-07-12T12:27:30;38.20;50.10
24152;DHT22;12311;50.866;4.332;2022-07-12T12:30:07;36.70;52.40
24152;DHT22;12311;50.866;4.332;2022-07-12T12:33:00;37.30;52.80
24152;DHT22;12311;50.866;4.332;2022-07-12T12:37:58;37.50;52.20
24152;DHT22;12311;50.866;4.332;2022-07-12T12:40:26;37.50;51.00
24152;DHT22;12311;50.866;4.332;2022-07-12T12:42:52;38.50;51.10
24152;DHT22;12311;50.866;4.332;2022-07-12T12:45:24;39.50;50.00
24152;DHT22;12311;50.866;4.332;2022-07-12T12:48:03;38.20;49.10
24152;DHT22;12311;50.866;4.332;2022-07-12T12:50:37;37.90;49.20
24152;DHT22;12311;50.866;4.332;2022-07-12T12:53:19;38.10;49.60
24152;DHT22;12311;50.866;4.332;2022-07-12T12:55:47;39.20;48.20
24152;DHT22;12311;50.866;4.332;2022-07-12T12:58:14;39.50;45.40
24152;DHT22;12311;50.866;4.332;2022-07-12T13:00:43;38.20;46.60
24152;DHT22;12311;50.866;4.332;2022-07-12T13:03:11;38.10;47.40
24152;DHT22;12311;50.866;4.332;2022-07-12T13:05:37;38.40;46.60
24152;DHT22;12311;50.866;4.332;2022-07-12T13:08:04;37.00;47.50
24152;DHT22;12311;50.866;4.332;2022-07-12T13:10:31;37.90;46.60
24152;DHT22;12311;50.866;4.332;2022-07-12T13:12:57;37.80;46.60
24152;DHT22;12311;50.866;4.332;2022-07-12T13:15:25;38.40;46.30
24152;DHT22;12311;50.866;4.332;2022-07-12T13:17:51;39.80;44.60
24152;DHT22;12311;50.866;4.332;2022-07-12T13:20:17;39.20;44.40
24152;DHT22;12311;50.866;4.332;2022-07-12T13:22:42;38.10;44.60
24152;DHT22;12311;50.866;4.332;2022-07-12T13:25:13;38.10;44.80
24152;DHT22;12311;50.866;4.332;2022-07-12T13:27:40;38.20;45.00
24152;DHT22;12311;50.866;4.332;2022-07-12T13:30:08;37.20;46.20
24152;DHT22;12311;50.866;4.332;2022-07-12T13:32:35;37.80;46.00
24152;DHT22;12311;50.866;4.332;2022-07-12T13:35:02;38.10;46.20
24152;DHT22;12311;50.866;4.332;2022-07-12T13:37:28;38.90;45.90
24152;DHT22;12311;50.866;4.332;2022-07-12T13:39:54;38.90;45.60
24152;DHT22;12311;50.866;4.332;2022-07-12T13:45:08;38.90;44.60
24152;DHT22;12311;50.866;4.332;2022-07-12T13:47:37;39.60;44.40
24152;DHT22;12311;50.866;4.332;2022-07-12T13:50:04;40.20;42.60
24152;DHT22;12311;50.866;4.332;2022-07-12T13:52:30;41.80;41.30
24152;DHT22;12311;50.866;4.332;2022-07-12T13:54:56;42.10;39.40
24152;DHT22;12311;50.866;4.332;2022-07-12T13:57:22;41.90;38.40
24152;DHT22;12311;50.866;4.332;2022-07-12T13:59:48;43.10;36.20
24152;DHT22;12311;50.866;4.332;2022-07-12T14:02:14;43.10;36.10
24152;DHT22;12311;50.866;4.332;2022-07-12T14:04:39;42.20;36.60
24152;DHT22;12311;50.866;4.332;2022-07-12T14:07:05;42.10;37.30
24152;DHT22;12311;50.866;4.332;2022-07-12T14:09:31;43.20;37.50
24152;DHT22;12311;50.866;4.332;2022-07-12T14:11:56;44.00;36.50
24152;DHT22;12311;50.866;4.332;2022-07-12T14:14:22;44.80;35.20
24152;DHT22;12311;50.866;4.332;2022-07-12T14:17:10;45.40;33.40
24152;DHT22;12311;50.866;4.332;2022-07-12T14:19:36;45.70;32.20
24152;DHT22;12311;50.866;4.332;2022-07-12T14:22:02;46.20;31.40
24152;DHT22;12311;50.866;4.332;2022-07-12T14:24:28;47.30;31.20
24152;DHT22;12311;50.866;4.332;2022-07-12T14:26:53;48.10;30.70
24152;DHT22;12311;50.866;4.332;2022-07-12T14:29:19;48.20;30.50
24152;DHT22;12311;50.866;4.332;2022-07-12T14:31:44;48.80;30.30
24152;DHT22;12311;50.866;4.332;2022-07-12T14:34:10;48.40;30.00
24152;DHT22;12311;50.866;4.332;2022-07-12T14:36:36;49.10;30.10
24152;DHT22;12311;50.866;4.332;2022-07-12T14:39:01;47.80;29.50
24152;DHT22;12311;50.866;4.332;2022-07-12T14:41:27;47.30;30.00
24152;DHT22;12311;50.866;4.332;2022-07-12T14:43:53;45.40;30.10
24152;DHT22;12311;50.866;4.332;2022-07-12T14:46:19;44.20;31.30
24152;DHT22;12311;50.866;4.332;2022-07-12T14:48:45;43.60;30.70
24152;DHT22;12311;50.866;4.332;2022-07-12T14:51:10;41.70;31.50
24152;DHT22;12311;50.866;4.332;2022-07-12T14:53:36;42.20;32.00
24152;DHT22;12311;50.866;4.332;2022-07-12T14:56:02;42.80;30.50
24152;DHT22;12311;50.866;4.332;2022-07-12T14:58:27;43.50;30.60
24152;DHT22;12311;50.866;4.332;2022-07-12T15:00:56;44.10;29.90
24152;DHT22;12311;50.866;4.332;2022-07-12T15:03:21;43.50;30.50
24152;DHT22;12311;50.866;4.332;2022-07-12T15:05:47;41.80;30.60
24152;DHT22;12311;50.866;4.332;2022-07-12T15:08:13;41.70;30.90
24152;DHT22;12311;50.866;4.332;2022-07-12T15:10:39;43.20;30.80
24152;DHT22;12311;50.866;4.332;2022-07-12T15:13:05;43.60;30.80
24152;DHT22;12311;50.866;4.332;2022-07-12T15:15:32;42.50;31.30
24152;DHT22;12311;50.866;4.332;2022-07-12T15:17:58;40.10;33.50
24152;DHT22;12311;50.866;4.332;2022-07-12T15:20:24;39.20;35.10
24152;DHT22;12311;50.866;4.332;2022-07-12T15:22:49;37.90;36.40
24152;DHT22;12311;50.866;4.332;2022-07-12T15:25:15;37.20;37.10
24152;DHT22;12311;50.866;4.332;2022-07-12T15:27:41;37.80;37.10
24152;DHT22;12311;50.866;4.332;2022-07-12T15:30:07;38.20;36.60
24152;DHT22;12311;50.866;4.332;2022-07-12T15:32:33;38.80;36.80
24152;DHT22;12311;50.866;4.332;2022-07-12T15:34:59;38.00;36.00
24152;DHT22;12311;50.866;4.332;2022-07-12T15:37:25;37.30;36.60
24152;DHT22;12311;50.866;4.332;2022-07-12T15:39:50;37.00;36.90
24152;DHT22;12311;50.866;4.332;2022-07-12T15:42:16;36.50;38.10
24152;DHT22;12311;50.866;4.332;2022-07-12T15:44:41;36.80;38.20
24152;DHT22;12311;50.866;4.332;2022-07-12T15:47:08;36.80;37.20
24152;DHT22;12311;50.866;4.332;2022-07-12T15:49:38;36.60;38.10